Patriot — WDH9087 — position and weather

sailwx.info

Track history (hours):
 
Tides and Currents Weather Stations Pressure Air Temp Water Temp Dewpoint Dewpoint Depression Visibility Wind Speed Wind Dir Waves Ship Positions

Patriot

Owner: Swigart, John J, Newport Beach, CA. More information available from US FCC via Universal Licensing System and Coast Guard Vessel Documentation Center.

Last reported at 2018-Jun-22 23:12 UTC. Time now 2018-Jun-23 15:36 UTC.
Position N 33°45' W 118°07'.

Length 15 m.

Type: Sailing vessel. MMSI: 338109838.

Date/timePositionNaut miles runAvg speedWind from/ knotsBaromVisibWave heightAir tempDewpointWater temp
2018-Jun-22 23:12N 33°45' W 118°07'0 0.0
2018-Jun-22 23:00N 33°45' W 118°07'1 1.2
2018-Jun-22 22:30N 33°45' W 118°07'3 5.3
2018-Jun-22 21:59N 33°44' W 118°10'1 1.5
2018-Jun-22 21:29N 33°43' W 118°11'3 5.8
2018-Jun-22 20:59N 33°43' W 118°14'3 5.6
2018-Jun-22 20:28N 33°44' W 118°11'2 4.5
2018-Jun-22 20:00N 33°44' W 118°09'0 0.4
2018-Jun-22 19:29N 33°44' W 118°09'1 1.7
2018-Jun-22 19:00N 33°44' W 118°08'1 3.0
2018-Jun-22 18:30N 33°44' W 118°09'2 3.6
2018-Jun-22 18:00N 33°44' W 118°07'1 2.1
2018-Jun-22 17:28N 33°45' W 118°07'0 0.0
2018-Jun-22 16:55N 33°45' W 118°07'0 0.5
2018-Jun-22 16:29N 33°45' W 118°07'3 6.3
2018-Jun-22 16:00N 33°42' W 118°05'  
Track history (hours):
 
Tides and Currents Weather Stations Pressure Air Temp Water Temp Dewpoint Dewpoint Depression Visibility Wind Speed Wind Dir Waves Ship Positions

Patriot

Owner: Swigart, John J, Newport Beach, CA. More information available from US FCC via Universal Licensing System and Coast Guard Vessel Documentation Center.

Last reported at 2018-Jun-22 23:12 UTC. Time now 2018-Jun-23 15:36 UTC.
Position N 33°45' W 118°07'.

Length 15 m.

Type: Sailing vessel. MMSI: 338109838.

Date/timePositionNaut miles runAvg speedWind from/ knotsBaromVisibWave heightAir tempDewpointWater temp
2018-Jun-22 23:12N 33°45' W 118°07'0 0.0
2018-Jun-22 23:00N 33°45' W 118°07'1 1.2
2018-Jun-22 22:30N 33°45' W 118°07'3 5.3
2018-Jun-22 21:59N 33°44' W 118°10'1 1.5
2018-Jun-22 21:29N 33°43' W 118°11'3 5.8
2018-Jun-22 20:59N 33°43' W 118°14'3 5.6
2018-Jun-22 20:28N 33°44' W 118°11'2 4.5
2018-Jun-22 20:00N 33°44' W 118°09'0 0.4
2018-Jun-22 19:29N 33°44' W 118°09'1 1.7
2018-Jun-22 19:00N 33°44' W 118°08'1 3.0
2018-Jun-22 18:30N 33°44' W 118°09'2 3.6
2018-Jun-22 18:00N 33°44' W 118°07'1 2.1
2018-Jun-22 17:28N 33°45' W 118°07'0 0.0
2018-Jun-22 16:55N 33°45' W 118°07'0 0.5
2018-Jun-22 16:29N 33°45' W 118°07'3 6.3
2018-Jun-22 16:00N 33°42' W 118°05'  

Dump ship's entire track history